Time;durP1;ratioP1;P1;durP2;ratioP2;P2;SDS_P1;SDS_P2;PMS_P1;PMS_P2;Temp;Humidity;BMP_temperature;BMP_pressure;BME280_temperature;BME280_humidity;BME280_pressure;Samples;Min_cycle;Max_cycle;Signal;HPM_P1;HPM_P2
2023/04/08 00:00:26;;;;;;;;;;;8.00;83.50;;;;;;6170551;23;19927;-96
2023/04/08 00:02:51;;;;;;;;;;;7.80;83.40;;;;;;6165588;23;19905;-95
2023/04/08 00:05:17;;;;;;;;;;;7.80;83.60;;;;;;6141714;23;19905;-96
2023/04/08 00:07:43;;;;;;;;;;;7.70;83.20;;;;;;6141380;23;19905;-95
2023/04/08 00:10:09;;;;;;;;;;;7.60;83.00;;;;;;6139688;23;19905;-96
2023/04/08 00:12:35;;;;;;;;;;;7.60;82.70;;;;;;6140563;23;19929;-95
2023/04/08 00:15:00;;;;;;;;;;;7.50;83.50;;;;;;6140089;23;20053;-95
2023/04/08 00:17:26;;;;;;;;;;;7.50;83.30;;;;;;6140523;23;19909;-96
2023/04/08 00:19:51;;;;;;;;;;;7.50;83.10;;;;;;6141051;23;19905;-95
2023/04/08 00:22:17;;;;;;;;;;;7.50;83.20;;;;;;6142882;23;19936;-96
2023/04/08 00:24:43;;;;;;;;;;;7.50;83.80;;;;;;6141456;23;19932;-96
2023/04/08 00:27:09;;;;;;;;;;;7.50;84.60;;;;;;6140237;23;19908;-96
2023/04/08 00:29:35;;;;;;;;;;;7.60;85.00;;;;;;6140823;23;19920;-96
2023/04/08 00:32:00;;;;;;;;;;;7.60;84.40;;;;;;6139442;23;19912;-95
2023/04/08 00:34:26;;;;;;;;;;;7.50;83.40;;;;;;6140065;23;19980;-96
2023/04/08 00:36:52;;;;;;;;;;;7.50;83.90;;;;;;6141020;23;20342;-95
2023/04/08 00:39:17;;;;;;;;;;;7.50;83.50;;;;;;6141585;23;19905;-96
2023/04/08 00:41:43;;;;;;;;;;;7.60;83.60;;;;;;6140592;23;19913;-96
2023/04/08 00:44:09;;;;;;;;;;;7.60;83.50;;;;;;6140192;23;19913;-95
2023/04/08 00:46:35;;;;;;;;;;;7.50;83.50;;;;;;6141497;23;19905;-94
2023/04/08 00:49:01;;;;;;;;;;;7.50;83.80;;;;;;6141888;23;19974;-96
2023/04/08 00:51:28;;;;;;;;;;;7.40;84.30;;;;;;6140936;23;19968;-96
2023/04/08 00:53:53;;;;;;;;;;;7.30;84.00;;;;;;6140931;23;19911;-96
2023/04/08 00:56:20;;;;;;;;;;;7.30;83.80;;;;;;6140653;23;19905;-96
2023/04/08 00:58:46;;;;;;;;;;;7.30;83.40;;;;;;6142057;23;19960;-96
2023/04/08 01:01:16;;;;;;;;;;;7.20;84.40;;;;;;6141863;23;19916;-96
2023/04/08 01:03:47;;;;;;;;;;;7.20;85.30;;;;;;6140353;23;19939;-96
2023/04/08 01:06:32;;;;;;;;;;;7.20;85.50;;;;;;6140028;23;19928;-95
2023/04/08 01:08:59;;;;;;;;;;;7.10;85.90;;;;;;6139931;23;19905;-96
2023/04/08 01:11:26;;;;;;;;;;;7.10;85.90;;;;;;6140371;23;19933;-96
2023/04/08 01:13:54;;;;;;;;;;;7.20;85.70;;;;;;6139781;23;19940;-95
2023/04/08 01:16:20;;;;;;;;;;;7.20;85.30;;;;;;6139058;23;20220;-96
2023/04/08 01:18:47;;;;;;;;;;;7.20;85.30;;;;;;6140971;23;19938;-95
2023/04/08 01:21:14;;;;;;;;;;;7.20;85.60;;;;;;6139563;23;19909;-95
2023/04/08 01:24:01;;;;;;;;;;;7.20;85.80;;;;;;6139446;23;20036;-95
2023/04/08 01:26:27;;;;;;;;;;;7.00;85.50;;;;;;6141343;23;19905;-95
2023/04/08 01:28:55;;;;;;;;;;;6.90;84.50;;;;;;6138320;23;19912;-96
2023/04/08 01:31:22;;;;;;;;;;;6.90;84.20;;;;;;6132670;23;19928;-95
2023/04/08 01:33:49;;;;;;;;;;;6.90;83.90;;;;;;6134524;23;19905;-96
2023/04/08 01:36:15;;;;;;;;;;;6.90;84.20;;;;;;6134194;23;19949;-95
2023/04/08 01:38:41;;;;;;;;;;;6.80;84.60;;;;;;6135053;23;19908;-96
2023/04/08 01:41:08;;;;;;;;;;;6.80;84.50;;;;;;6148978;23;20246;-96
2023/04/08 01:43:34;;;;;;;;;;;6.80;85.00;;;;;;6167396;23;19913;-95
2023/04/08 01:46:00;;;;;;;;;;;6.80;85.30;;;;;;6169145;23;19905;-96
2023/04/08 01:48:27;;;;;;;;;;;6.70;85.60;;;;;;6143453;23;19948;-95
2023/04/08 01:50:54;;;;;;;;;;;6.70;85.80;;;;;;6143427;23;20016;-94
2023/04/08 01:53:20;;;;;;;;;;;6.70;86.00;;;;;;6143513;23;19905;-96
2023/04/08 01:55:48;;;;;;;;;;;6.70;86.50;;;;;;6170161;23;19955;-96
2023/04/08 01:58:17;;;;;;;;;;;6.70;86.60;;;;;;6143147;23;19955;-95
2023/04/08 02:00:43;;;;;;;;;;;6.70;86.70;;;;;;6143255;23;19905;-96
2023/04/08 02:03:09;;;;;;;;;;;6.60;87.00;;;;;;6143089;23;19908;-95
2023/04/08 02:05:35;;;;;;;;;;;6.50;87.10;;;;;;6169322;23;19904;-95
2023/04/08 02:08:01;;;;;;;;;;;6.40;87.70;;;;;;6143295;23;19986;-96
2023/04/08 02:10:26;;;;;;;;;;;6.40;88.30;;;;;;6143225;23;19925;-96
2023/04/08 02:12:52;;;;;;;;;;;6.40;88.60;;;;;;6142560;23;19937;-96
2023/04/08 02:15:18;;;;;;;;;;;6.30;88.20;;;;;;6167874;23;19954;-96
2023/04/08 02:17:45;;;;;;;;;;;6.30;88.10;;;;;;6142631;23;19904;-96
2023/04/08 02:20:17;;;;;;;;;;;6.40;87.90;;;;;;6168685;23;19908;-96
2023/04/08 02:22:43;;;;;;;;;;;6.40;87.40;;;;;;6168552;23;19936;-95
2023/04/08 02:25:12;;;;;;;;;;;6.40;86.70;;;;;;6168299;23;19915;-95
2023/04/08 02:27:38;;;;;;;;;;;6.40;86.30;;;;;;6168340;23;19904;-96
2023/04/08 02:30:05;;;;;;;;;;;6.30;85.80;;;;;;6142931;23;19905;-95
2023/04/08 02:32:32;;;;;;;;;;;6.20;85.50;;;;;;6168791;23;19973;-96
2023/04/08 02:34:58;;;;;;;;;;;6.20;86.20;;;;;;6168648;23;19905;-96
2023/04/08 02:37:24;;;;;;;;;;;6.10;86.60;;;;;;6168434;23;19911;-94
2023/04/08 02:39:50;;;;;;;;;;;6.00;86.60;;;;;;6142559;23;19905;-96
2023/04/08 02:42:15;;;;;;;;;;;5.80;87.10;;;;;;6142595;23;19943;-96
2023/04/08 02:44:41;;;;;;;;;;;5.90;87.90;;;;;;6168471;23;20250;-95
2023/04/08 02:47:06;;;;;;;;;;;5.90;87.70;;;;;;6142290;23;19912;-95
2023/04/08 02:49:32;;;;;;;;;;;5.90;87.50;;;;;;6168939;23;19905;-95
2023/04/08 02:51:58;;;;;;;;;;;5.90;87.40;;;;;;6168493;23;19904;-96
2023/04/08 02:54:23;;;;;;;;;;;6.00;88.10;;;;;;6168570;23;19971;-95
2023/04/08 02:56:49;;;;;;;;;;;5.90;87.80;;;;;;6168332;23;19952;-95
2023/04/08 02:59:15;;;;;;;;;;;5.90;87.30;;;;;;6169227;23;19951;-96
2023/04/08 03:01:41;;;;;;;;;;;5.70;86.90;;;;;;6143002;23;19931;-96
2023/04/08 03:04:07;;;;;;;;;;;5.70;87.90;;;;;;6144374;23;20335;-96
2023/04/08 03:06:32;;;;;;;;;;;5.70;88.80;;;;;;6170226;23;19920;-96
2023/04/08 03:08:58;;;;;;;;;;;5.70;88.80;;;;;;6143547;23;19905;-96
2023/04/08 03:11:23;;;;;;;;;;;5.90;88.60;;;;;;6170273;23;19905;-95
2023/04/08 03:13:49;;;;;;;;;;;5.90;88.80;;;;;;6144603;23;19905;-95
2023/04/08 03:16:15;;;;;;;;;;;6.10;89.60;;;;;;6144094;23;20311;-95
2023/04/08 03:18:41;;;;;;;;;;;6.10;89.00;;;;;;6169892;23;20421;-96
2023/04/08 03:21:06;;;;;;;;;;;6.10;88.80;;;;;;6170303;23;19904;-95
2023/04/08 03:23:32;;;;;;;;;;;6.10;88.30;;;;;;6143454;23;19909;-96
2023/04/08 03:25:57;;;;;;;;;;;6.10;88.20;;;;;;6170457;23;19904;-96
2023/04/08 03:28:23;;;;;;;;;;;6.10;88.40;;;;;;6145139;23;19904;-94
2023/04/08 03:30:49;;;;;;;;;;;6.00;87.70;;;;;;6144351;23;19927;-95
2023/04/08 03:33:14;;;;;;;;;;;5.90;86.60;;;;;;6168382;23;19986;-95
2023/04/08 03:35:40;;;;;;;;;;;5.70;87.40;;;;;;6167137;23;19959;-95
2023/04/08 03:38:05;;;;;;;;;;;5.40;88.50;;;;;;6165987;23;19905;-95
2023/04/08 03:40:31;;;;;;;;;;;5.40;89.40;;;;;;6167594;23;19916;-96
2023/04/08 03:42:57;;;;;;;;;;;5.40;89.80;;;;;;6168101;23;19905;-95
2023/04/08 03:45:22;;;;;;;;;;;5.40;90.10;;;;;;6168823;23;19905;-96
2023/04/08 03:47:48;;;;;;;;;;;5.60;90.60;;;;;;6168790;23;19932;-96
2023/04/08 03:50:13;;;;;;;;;;;5.70;90.90;;;;;;6168542;23;20374;-96
2023/04/08 03:52:39;;;;;;;;;;;5.90;90.60;;;;;;6167738;23;19912;-96
2023/04/08 03:55:05;;;;;;;;;;;6.00;90.40;;;;;;6167981;23;19905;-96
2023/04/08 03:57:31;;;;;;;;;;;6.00;90.50;;;;;;6140990;23;20303;-95
2023/04/08 03:59:56;;;;;;;;;;;6.10;90.60;;;;;;6163803;23;19950;-96
2023/04/08 04:02:22;;;;;;;;;;;6.20;91.20;;;;;;6136917;23;20239;-95
2023/04/08 04:04:47;;;;;;;;;;;6.20;90.80;;;;;;6163331;23;19917;-95
2023/04/08 04:07:13;;;;;;;;;;;6.20;90.10;;;;;;6163477;23;19912;-96
2023/04/08 04:09:38;;;;;;;;;;;6.10;89.00;;;;;;6162842;23;19983;-95
2023/04/08 04:12:04;;;;;;;;;;;5.90;88.20;;;;;;6163447;23;19909;-95
2023/04/08 04:14:30;;;;;;;;;;;5.80;88.60;;;;;;6159956;23;19904;-96
2023/04/08 04:16:55;;;;;;;;;;;5.80;88.60;;;;;;6160284;23;19912;-94
2023/04/08 04:19:21;;;;;;;;;;;5.90;89.00;;;;;;6159896;23;19999;-95
2023/04/08 04:21:46;;;;;;;;;;;6.00;89.50;;;;;;6159915;23;19904;-96
2023/04/08 04:24:12;;;;;;;;;;;6.10;90.30;;;;;;6159697;23;19908;-96
2023/04/08 04:26:39;;;;;;;;;;;6.20;90.30;;;;;;6160293;23;19912;-95
2023/04/08 04:29:05;;;;;;;;;;;6.40;90.30;;;;;;6159921;23;19931;-95
2023/04/08 04:31:30;;;;;;;;;;;6.40;90.10;;;;;;6135095;23;19905;-96
2023/04/08 04:33:56;;;;;;;;;;;6.60;90.00;;;;;;6163380;23;20385;-96
2023/04/08 04:36:21;;;;;;;;;;;6.60;89.40;;;;;;6163890;23;19916;-96
2023/04/08 04:38:48;;;;;;;;;;;6.60;89.20;;;;;;6164301;23;19905;-96
2023/04/08 04:41:13;;;;;;;;;;;6.60;88.80;;;;;;6163766;23;19912;-94
2023/04/08 04:43:39;;;;;;;;;;;6.70;88.80;;;;;;6140864;23;19936;-95
2023/04/08 04:46:07;;;;;;;;;;;6.70;88.60;;;;;;6140155;23;19952;-96
2023/04/08 04:48:36;;;;;;;;;;;6.70;88.20;;;;;;6139801;23;19912;-96
2023/04/08 04:51:06;;;;;;;;;;;6.80;87.90;;;;;;6139016;23;20354;-96
2023/04/08 04:53:31;;;;;;;;;;;6.70;87.50;;;;;;6140289;23;19909;-96
2023/04/08 04:55:57;;;;;;;;;;;6.80;87.70;;;;;;6141195;23;19952;-95
2023/04/08 04:58:23;;;;;;;;;;;6.90;87.70;;;;;;6145174;23;19904;-96
2023/04/08 05:00:49;;;;;;;;;;;7.10;87.10;;;;;;6171346;23;19988;-96
2023/04/08 05:03:15;;;;;;;;;;;7.20;86.50;;;;;;6143906;23;19972;-95
2023/04/08 05:05:40;;;;;;;;;;;7.30;86.30;;;;;;6145020;23;19911;-96
2023/04/08 05:08:06;;;;;;;;;;;7.40;86.20;;;;;;6145106;23;20242;-96
2023/04/08 05:10:32;;;;;;;;;;;7.40;85.90;;;;;;6172194;23;19914;-96
2023/04/08 05:12:58;;;;;;;;;;;7.50;85.60;;;;;;6146663;23;19938;-96
2023/04/08 05:15:23;;;;;;;;;;;7.50;85.40;;;;;;6145972;23;19912;-95
2023/04/08 05:17:49;;;;;;;;;;;7.60;85.40;;;;;;6170376;23;19959;-95
2023/04/08 05:20:15;;;;;;;;;;;7.60;85.50;;;;;;6144733;23;19911;-95
2023/04/08 05:22:43;;;;;;;;;;;7.50;85.30;;;;;;6170161;23;19908;-96
2023/04/08 05:25:09;;;;;;;;;;;7.40;85.30;;;;;;6168867;23;19908;-96
2023/04/08 05:27:35;;;;;;;;;;;7.40;85.20;;;;;;6169895;23;19905;-96
2023/04/08 05:30:00;;;;;;;;;;;7.40;85.30;;;;;;6171526;23;19912;-95
2023/04/08 05:32:26;;;;;;;;;;;7.40;85.30;;;;;;6146801;23;19905;-96
2023/04/08 05:34:52;;;;;;;;;;;7.40;85.40;;;;;;6174214;23;20327;-96
2023/04/08 05:37:17;;;;;;;;;;;7.50;85.30;;;;;;6148536;23;19905;-96
2023/04/08 05:39:43;;;;;;;;;;;7.60;85.00;;;;;;6170349;23;19904;-95
2023/04/08 05:42:09;;;;;;;;;;;7.60;85.50;;;;;;6142068;23;19916;-94
2023/04/08 05:44:35;;;;;;;;;;;7.70;86.00;;;;;;6139986;23;19920;-96
2023/04/08 05:47:01;;;;;;;;;;;7.70;85.70;;;;;;6140429;23;20246;-96
2023/04/08 05:49:26;;;;;;;;;;;7.70;85.50;;;;;;6168759;23;19904;-96
2023/04/08 05:51:52;;;;;;;;;;;7.80;85.30;;;;;;6168969;23;19908;-96
2023/04/08 05:54:18;;;;;;;;;;;7.80;85.20;;;;;;6143397;23;19912;-96
2023/04/08 05:56:45;;;;;;;;;;;7.90;85.00;;;;;;6169457;23;20337;-96
2023/04/08 05:59:11;;;;;;;;;;;7.90;84.80;;;;;;6169770;23;19912;-96
2023/04/08 06:01:36;;;;;;;;;;;7.90;84.60;;;;;;6170286;23;19904;-95
2023/04/08 06:04:02;;;;;;;;;;;7.90;84.60;;;;;;6142650;23;19935;-96
2023/04/08 06:06:27;;;;;;;;;;;8.00;84.40;;;;;;6167755;23;19912;-96
2023/04/08 06:08:53;;;;;;;;;;;8.10;84.00;;;;;;6166455;23;19911;-95
2023/04/08 06:11:18;;;;;;;;;;;8.10;83.80;;;;;;6166480;23;19909;-96
2023/04/08 06:13:44;;;;;;;;;;;8.30;83.70;;;;;;6167398;23;19949;-96
2023/04/08 06:16:11;;;;;;;;;;;8.40;83.90;;;;;;6143111;23;20242;-96
2023/04/08 06:18:36;;;;;;;;;;;8.40;83.60;;;;;;6170252;23;20307;-96
2023/04/08 06:21:02;;;;;;;;;;;8.40;82.30;;;;;;6168447;23;19908;-96
2023/04/08 06:23:28;;;;;;;;;;;8.50;82.50;;;;;;6169105;23;19909;-96
2023/04/08 06:25:53;;;;;;;;;;;8.60;82.90;;;;;;6145873;23;19928;-95
2023/04/08 06:28:19;;;;;;;;;;;8.70;82.80;;;;;;6146624;23;20310;-96
2023/04/08 06:30:45;;;;;;;;;;;8.80;82.40;;;;;;6146955;23;19909;-96
2023/04/08 06:33:11;;;;;;;;;;;9.00;82.40;;;;;;6174892;23;19905;-96
2023/04/08 06:35:39;;;;;;;;;;;9.10;82.60;;;;;;6149704;23;19905;-96
2023/04/08 06:38:05;;;;;;;;;;;9.20;82.30;;;;;;6176628;23;19931;-96
2023/04/08 06:40:31;;;;;;;;;;;9.10;81.00;;;;;;6176490;23;20328;-96
2023/04/08 06:42:57;;;;;;;;;;;9.30;80.90;;;;;;6151688;23;19904;-96
2023/04/08 06:45:25;;;;;;;;;;;9.50;80.70;;;;;;6179105;23;19915;-96
2023/04/08 06:47:51;;;;;;;;;;;9.70;81.60;;;;;;6153167;23;19911;-96
2023/04/08 06:50:17;;;;;;;;;;;9.90;81.40;;;;;;6171479;23;19936;-96
2023/04/08 06:52:42;;;;;;;;;;;10.00;80.60;;;;;;6171600;23;20279;-96
2023/04/08 06:55:08;;;;;;;;;;;10.10;79.70;;;;;;6174082;23;20308;-96
2023/04/08 06:57:34;;;;;;;;;;;10.30;79.30;;;;;;6148082;23;19905;-96
2023/04/08 06:59:59;;;;;;;;;;;10.40;79.20;;;;;;6173758;23;19905;-95
2023/04/08 07:02:25;;;;;;;;;;;10.60;78.70;;;;;;6173720;23;20288;-96
2023/04/08 07:04:51;;;;;;;;;;;10.70;78.00;;;;;;6173770;23;19958;-96
2023/04/08 07:07:17;;;;;;;;;;;10.90;77.90;;;;;;6174069;23;19909;-96
2023/04/08 07:09:44;;;;;;;;;;;11.00;77.80;;;;;;6152518;23;19909;-96
2023/04/08 07:12:11;;;;;;;;;;;11.10;76.50;;;;;;6151372;23;19912;-96
2023/04/08 07:14:37;;;;;;;;;;;11.10;76.60;;;;;;6178962;23;19905;-96
2023/04/08 07:17:03;;;;;;;;;;;11.10;76.80;;;;;;6153098;23;20242;-96
2023/04/08 07:19:29;;;;;;;;;;;11.10;77.10;;;;;;6179100;23;19912;-96
2023/04/08 07:21:56;;;;;;;;;;;11.20;76.20;;;;;;6155841;23;19928;-96
2023/04/08 07:24:23;;;;;;;;;;;11.30;76.50;;;;;;6156339;23;19919;-95
2023/04/08 07:26:50;;;;;;;;;;;11.40;76.10;;;;;;6180262;23;19952;-96
2023/04/08 07:29:17;;;;;;;;;;;11.60;75.50;;;;;;6154594;23;19905;-96
2023/04/08 07:31:43;;;;;;;;;;;11.80;74.90;;;;;;6153818;23;19956;-96
2023/04/08 07:34:10;;;;;;;;;;;11.80;74.30;;;;;;6153758;23;19928;-96
2023/04/08 07:36:37;;;;;;;;;;;11.90;74.20;;;;;;6179413;23;19905;-96
2023/04/08 07:39:03;;;;;;;;;;;12.10;73.50;;;;;;6153738;23;19932;-96
2023/04/08 07:41:29;;;;;;;;;;;12.30;72.80;;;;;;6144630;23;20291;-96
2023/04/08 07:43:55;;;;;;;;;;;12.40;72.20;;;;;;6150116;23;19920;-96
2023/04/08 07:46:22;;;;;;;;;;;12.40;71.10;;;;;;6148343;23;19913;-95
2023/04/08 07:48:48;;;;;;;;;;;12.40;70.70;;;;;;6147135;23;19908;-96
2023/04/08 07:51:14;;;;;;;;;;;12.40;71.10;;;;;;6147355;23;19912;-96
2023/04/08 07:53:41;;;;;;;;;;;12.40;71.10;;;;;;6147496;23;19905;-95
2023/04/08 07:56:10;;;;;;;;;;;12.40;71.00;;;;;;6144827;23;19928;-96
2023/04/08 07:58:36;;;;;;;;;;;12.40;70.90;;;;;;6143011;23;19905;-96
2023/04/08 08:01:02;;;;;;;;;;;12.40;69.10;;;;;;6142141;23;19928;-96
2023/04/08 08:03:28;;;;;;;;;;;12.50;66.70;;;;;;6144878;23;19909;-96
2023/04/08 08:05:54;;;;;;;;;;;12.50;61.00;;;;;;6142804;23;19905;-96
2023/04/08 08:08:19;;;;;;;;;;;12.60;63.10;;;;;;6143982;23;19984;-96
2023/04/08 08:10:45;;;;;;;;;;;12.80;65.70;;;;;;6142319;23;19935;-96
2023/04/08 08:13:15;;;;;;;;;;;12.90;65.60;;;;;;6142832;23;19916;-96
2023/04/08 08:15:41;;;;;;;;;;;12.90;65.90;;;;;;6145944;23;19905;-96
2023/04/08 08:18:07;;;;;;;;;;;12.90;66.30;;;;;;6147194;23;19905;-96
2023/04/08 08:20:34;;;;;;;;;;;13.00;66.20;;;;;;6146097;23;19912;-96
2023/04/08 08:23:00;;;;;;;;;;;13.10;62.70;;;;;;6144793;23;20428;-96
2023/04/08 08:25:26;;;;;;;;;;;13.20;59.50;;;;;;6144850;23;19921;-96
2023/04/08 08:27:52;;;;;;;;;;;13.30;59.70;;;;;;6146342;23;19948;-96
2023/04/08 08:30:20;;;;;;;;;;;13.20;58.10;;;;;;6144604;23;19931;-96
2023/04/08 08:32:47;;;;;;;;;;;13.10;57.60;;;;;;6146794;23;19905;-96
2023/04/08 08:35:13;;;;;;;;;;;13.00;58.00;;;;;;6145339;23;19937;-96
2023/04/08 08:37:39;;;;;;;;;;;13.00;59.20;;;;;;6144409;23;19912;-96
2023/04/08 08:40:05;;;;;;;;;;;12.90;58.60;;;;;;6145387;23;19912;-96
2023/04/08 08:42:31;;;;;;;;;;;13.00;58.30;;;;;;6173345;23;19936;-96
2023/04/08 08:44:57;;;;;;;;;;;13.10;58.40;;;;;;6150728;23;19915;-96
2023/04/08 08:47:23;;;;;;;;;;;13.10;58.20;;;;;;6152413;23;19905;-96
2023/04/08 08:49:49;;;;;;;;;;;13.30;59.40;;;;;;6152296;23;19889;-96
2023/04/08 08:52:16;;;;;;;;;;;13.40;57.20;;;;;;6152762;23;19905;-96
2023/04/08 08:54:44;;;;;;;;;;;13.50;55.00;;;;;;6179783;23;19928;-96
2023/04/08 08:57:17;;;;;;;;;;;13.60;55.20;;;;;;6153754;23;19896;-96
2023/04/08 08:59:45;;;;;;;;;;;13.90;53.50;;;;;;6152377;23;19970;-96
2023/04/08 09:02:30;;;;;;;;;;;14.00;54.40;;;;;;6153186;23;19949;-96
2023/04/08 09:04:57;;;;;;;;;;;14.10;51.00;;;;;;6151448;23;19916;-96
2023/04/08 09:07:25;;;;;;;;;;;14.10;51.30;;;;;;6150721;23;19904;-96
2023/04/08 09:09:51;;;;;;;;;;;14.10;52.40;;;;;;6151094;23;19904;-96
2023/04/08 09:12:17;;;;;;;;;;;14.10;52.70;;;;;;6149739;23;19913;-96
2023/04/08 09:14:43;;;;;;;;;;;14.20;54.60;;;;;;6152028;23;19905;-96
2023/04/08 09:17:12;;;;;;;;;;;14.30;55.50;;;;;;6179127;23;19911;-96
2023/04/08 09:19:38;;;;;;;;;;;14.50;53.80;;;;;;6152692;23;19904;-96
2023/04/08 09:22:06;;;;;;;;;;;14.70;53.70;;;;;;6153649;23;19924;-96
2023/04/08 09:24:33;;;;;;;;;;;14.90;51.90;;;;;;6180446;23;19913;-96
2023/04/08 09:27:00;;;;;;;;;;;14.90;52.90;;;;;;6155998;23;19904;-96
2023/04/08 09:29:28;;;;;;;;;;;15.10;53.90;;;;;;6155841;23;19912;-96
2023/04/08 09:31:55;;;;;;;;;;;15.10;51.90;;;;;;6155219;23;19905;-96
2023/04/08 09:34:26;;;;;;;;;;;15.20;53.00;;;;;;6155604;23;19932;-96
2023/04/08 09:36:52;;;;;;;;;;;15.30;52.70;;;;;;6155626;23;19912;-96
2023/04/08 09:39:19;;;;;;;;;;;15.40;51.60;;;;;;6154900;23;19928;-96
2023/04/08 09:41:47;;;;;;;;;;;15.30;51.30;;;;;;6135845;23;19917;-96
2023/04/08 09:44:15;;;;;;;;;;;15.20;51.30;;;;;;6124794;23;19900;-96
2023/04/08 09:46:50;;;;;;;;;;;15.10;51.90;;;;;;6149903;23;19905;-96
2023/04/08 09:49:35;;;;;;;;;;;15.10;52.40;;;;;;6149392;23;19959;-96
2023/04/08 09:52:12;;;;;;;;;;;15.00;53.30;;;;;;6123374;23;19916;-96
2023/04/08 09:54:48;;;;;;;;;;;14.90;49.60;;;;;;6123677;23;19925;-96
2023/04/08 09:57:16;;;;;;;;;;;15.00;50.20;;;;;;6123730;23;19929;-96
2023/04/08 09:59:48;;;;;;;;;;;15.00;50.90;;;;;;6124657;23;19905;-96
2023/04/08 10:02:16;;;;;;;;;;;15.00;49.70;;;;;;6151383;23;19905;-96
2023/04/08 10:04:45;;;;;;;;;;;15.10;51.20;;;;;;6125421;23;19913;-96
2023/04/08 10:07:13;;;;;;;;;;;15.30;50.40;;;;;;6125273;23;19905;-96
2023/04/08 10:09:41;;;;;;;;;;;15.40;49.20;;;;;;6123433;23;19905;-96
2023/04/08 10:12:10;;;;;;;;;;;15.40;48.90;;;;;;6126320;23;19937;-96
2023/04/08 10:14:36;;;;;;;;;;;15.50;50.60;;;;;;6127411;23;19915;-96
2023/04/08 10:17:21;;;;;;;;;;;15.60;50.50;;;;;;6125016;23;19928;-96
2023/04/08 10:19:48;;;;;;;;;;;15.70;49.80;;;;;;6124968;23;19948;-96
2023/04/08 10:22:34;;;;;;;;;;;15.80;48.60;;;;;;6124671;23;19905;-96
2023/04/08 10:25:15;;;;;;;;;;;16.10;46.10;;;;;;6123041;23;19909;-96
2023/04/08 10:27:42;;;;;;;;;;;16.20;44.20;;;;;;6122415;23;19944;-96
2023/04/08 10:30:26;;;;;;;;;;;16.20;44.30;;;;;;6149414;23;19889;-96
2023/04/08 10:32:56;;;;;;;;;;;16.10;44.20;;;;;;6122116;23;19905;-96
2023/04/08 10:35:29;;;;;;;;;;;16.20;46.10;;;;;;6146256;23;19924;-96
2023/04/08 10:37:55;;;;;;;;;;;16.30;45.70;;;;;;6119808;23;19905;-96
2023/04/08 10:40:21;;;;;;;;;;;16.30;45.10;;;;;;6120061;23;19911;-96
2023/04/08 10:42:46;;;;;;;;;;;16.40;45.50;;;;;;6150351;23;20247;-96
2023/04/08 10:45:16;;;;;;;;;;;16.40;44.90;;;;;;6150320;23;19951;-95
2023/04/08 10:47:42;;;;;;;;;;;16.60;44.70;;;;;;6150062;23;19979;-96
2023/04/08 10:50:11;;;;;;;;;;;16.80;46.90;;;;;;6175506;23;19905;-96
2023/04/08 10:52:54;;;;;;;;;;;17.00;45.90;;;;;;6149720;23;19912;-96
2023/04/08 10:55:26;;;;;;;;;;;17.30;43.70;;;;;;6176203;23;20293;-96
2023/04/08 10:57:52;;;;;;;;;;;17.50;44.50;;;;;;6174290;23;19915;-96
2023/04/08 11:00:34;;;;;;;;;;;17.80;41.70;;;;;;6147310;23;19905;-96
2023/04/08 11:03:02;;;;;;;;;;;17.90;42.30;;;;;;6151712;23;19904;-96
2023/04/08 11:05:28;;;;;;;;;;;18.00;44.30;;;;;;6151608;23;20043;-96
2023/04/08 11:07:54;;;;;;;;;;;18.00;43.60;;;;;;6149801;23;19904;-96
2023/04/08 11:10:21;;;;;;;;;;;18.20;43.60;;;;;;6147676;23;19904;-96
2023/04/08 11:12:47;;;;;;;;;;;18.00;45.10;;;;;;6150799;23;19924;-96
2023/04/08 11:15:13;;;;;;;;;;;18.20;45.60;;;;;;6151125;23;19905;-96
2023/04/08 11:17:38;;;;;;;;;;;18.30;44.40;;;;;;6150543;23;19905;-96
2023/04/08 11:20:05;;;;;;;;;;;18.50;41.90;;;;;;6176418;23;20288;-96
2023/04/08 11:22:33;;;;;;;;;;;18.70;42.40;;;;;;6151528;23;19912;-95
2023/04/08 11:24:59;;;;;;;;;;;18.80;42.30;;;;;;6177874;23;19909;-96
2023/04/08 11:27:25;;;;;;;;;;;18.80;40.00;;;;;;6148704;23;19911;-96
2023/04/08 11:29:55;;;;;;;;;;;18.60;40.30;;;;;;6148833;23;19942;-96
2023/04/08 11:32:22;;;;;;;;;;;18.30;41.50;;;;;;6149598;23;19904;-96
2023/04/08 11:34:48;;;;;;;;;;;18.30;40.80;;;;;;6151390;23;19912;-96
2023/04/08 11:37:14;;;;;;;;;;;18.40;42.60;;;;;;6151759;23;19904;-96
2023/04/08 11:39:44;;;;;;;;;;;18.60;40.50;;;;;;6152894;23;19905;-96
2023/04/08 11:42:30;;;;;;;;;;;18.70;39.20;;;;;;6146566;23;19916;-96
2023/04/08 11:44:56;;;;;;;;;;;18.80;38.80;;;;;;6148200;23;19939;-96
2023/04/08 11:47:22;;;;;;;;;;;19.00;41.80;;;;;;6148039;23;19909;-96
2023/04/08 11:49:50;;;;;;;;;;;19.10;37.80;;;;;;6146185;23;19905;-96
2023/04/08 11:52:15;;;;;;;;;;;19.30;38.20;;;;;;6145887;23;19905;-96
2023/04/08 11:54:42;;;;;;;;;;;19.30;38.60;;;;;;6148386;23;19909;-96
2023/04/08 11:57:11;;;;;;;;;;;19.40;40.70;;;;;;6147808;23;19921;-96
2023/04/08 11:59:37;;;;;;;;;;;19.50;38.90;;;;;;6149969;23;19905;-96
2023/04/08 12:02:03;;;;;;;;;;;19.50;39.80;;;;;;6148013;23;19912;-96
2023/04/08 12:04:29;;;;;;;;;;;19.60;38.60;;;;;;6147828;23;19908;-96
2023/04/08 12:06:56;;;;;;;;;;;19.80;40.00;;;;;;6148509;23;19996;-96
2023/04/08 12:09:22;;;;;;;;;;;20.00;38.90;;;;;;6146976;23;19897;-96
2023/04/08 12:11:49;;;;;;;;;;;20.30;39.30;;;;;;6149245;23;19912;-96
2023/04/08 12:14:15;;;;;;;;;;;20.60;39.60;;;;;;6149469;23;19912;-96
2023/04/08 12:16:41;;;;;;;;;;;21.00;40.30;;;;;;6149365;23;19905;-96
2023/04/08 12:19:08;;;;;;;;;;;21.30;40.20;;;;;;6148876;23;19905;-96
2023/04/08 12:21:34;;;;;;;;;;;21.70;38.40;;;;;;6149122;23;19912;-96
2023/04/08 12:24:01;;;;;;;;;;;21.90;38.20;;;;;;6148967;23;19916;-96
2023/04/08 12:26:27;;;;;;;;;;;22.20;38.30;;;;;;6150866;23;19905;-96
2023/04/08 12:28:53;;;;;;;;;;;22.50;35.80;;;;;;6150266;23;19925;-96
2023/04/08 12:31:20;;;;;;;;;;;22.70;36.30;;;;;;6149703;23;19924;-96
2023/04/08 12:33:47;;;;;;;;;;;22.70;34.20;;;;;;6148833;23;19912;-96
2023/04/08 12:36:12;;;;;;;;;;;22.20;34.20;;;;;;6147053;23;19927;-96
2023/04/08 12:38:39;;;;;;;;;;;21.80;34.80;;;;;;6151380;23;19913;-96
2023/04/08 12:41:06;;;;;;;;;;;21.70;35.60;;;;;;6156377;23;19952;-96
2023/04/08 12:43:35;;;;;;;;;;;21.70;37.10;;;;;;6156990;23;19908;-96
2023/04/08 12:46:05;;;;;;;;;;;21.40;35.80;;;;;;6157123;23;19911;-96
2023/04/08 12:48:33;;;;;;;;;;;21.70;35.50;;;;;;6157732;23;19905;-96
2023/04/08 12:51:02;;;;;;;;;;;22.00;37.70;;;;;;6182479;23;19904;-96
2023/04/08 12:53:41;;;;;;;;;;;22.30;35.70;;;;;;6158757;23;19912;-96
2023/04/08 12:56:12;;;;;;;;;;;22.70;36.90;;;;;;6158089;23;19897;-96
2023/04/08 12:58:40;;;;;;;;;;;23.20;37.10;;;;;;6159249;23;19928;-96
2023/04/08 13:01:08;;;;;;;;;;;23.60;34.30;;;;;;6158336;23;19909;-96
2023/04/08 13:03:47;;;;;;;;;;;23.70;34.40;;;;;;6158982;23;19909;-96
2023/04/08 13:06:24;;;;;;;;;;;23.90;34.40;;;;;;6159341;23;19913;-96
2023/04/08 13:08:55;;;;;;;;;;;23.80;35.20;;;;;;6158967;23;19915;-96
2023/04/08 13:11:26;;;;;;;;;;;24.00;34.10;;;;;;6158379;23;19901;-96
2023/04/08 13:13:54;;;;;;;;;;;23.90;34.10;;;;;;6158863;23;19909;-96
2023/04/08 13:16:22;;;;;;;;;;;23.40;34.30;;;;;;6158118;23;19889;-96
2023/04/08 13:18:52;;;;;;;;;;;23.30;36.30;;;;;;6158272;23;19895;-96
2023/04/08 13:21:21;;;;;;;;;;;23.40;36.60;;;;;;6159253;23;19905;-96
2023/04/08 13:24:09;;;;;;;;;;;23.70;35.30;;;;;;6162985;23;19903;-96
2023/04/08 13:26:41;;;;;;;;;;;23.90;35.30;;;;;;6158351;23;19916;-96
2023/04/08 13:29:11;;;;;;;;;;;23.70;35.50;;;;;;6184206;23;19924;-96
2023/04/08 13:31:38;;;;;;;;;;;23.60;34.90;;;;;;6183317;23;19941;-96
2023/04/08 13:34:09;;;;;;;;;;;23.10;35.00;;;;;;6157700;23;20373;-96
2023/04/08 13:36:38;;;;;;;;;;;22.70;37.20;;;;;;6156975;23;19948;-96
2023/04/08 13:39:17;;;;;;;;;;;22.50;37.40;;;;;;6156785;23;19931;-96
2023/04/08 13:41:45;;;;;;;;;;;22.20;38.40;;;;;;6152565;23;19897;-96
2023/04/08 13:44:11;;;;;;;;;;;21.90;38.10;;;;;;6151993;23;19901;-96
2023/04/08 13:46:38;;;;;;;;;;;21.70;37.90;;;;;;6152231;23;19904;-96
2023/04/08 13:49:04;;;;;;;;;;;21.20;38.60;;;;;;6150917;23;19905;-96
2023/04/08 13:51:31;;;;;;;;;;;20.80;39.70;;;;;;6147764;23;19929;-96
2023/04/08 13:53:58;;;;;;;;;;;20.50;41.10;;;;;;6147007;23;19905;-96
2023/04/08 13:56:24;;;;;;;;;;;20.30;42.20;;;;;;6149071;23;19912;-96
2023/04/08 13:58:51;;;;;;;;;;;20.00;41.30;;;;;;6149777;23;19924;-96
2023/04/08 14:01:17;;;;;;;;;;;19.80;41.60;;;;;;6148247;23;19905;-96
2023/04/08 14:03:43;;;;;;;;;;;19.50;42.10;;;;;;6148068;23;19909;-96
2023/04/08 14:06:09;;;;;;;;;;;19.50;43.00;;;;;;6147741;23;19954;-96
2023/04/08 14:08:35;;;;;;;;;;;19.40;43.10;;;;;;6148370;23;19889;-96
2023/04/08 14:11:01;;;;;;;;;;;19.40;42.30;;;;;;6149088;23;19912;-96
2023/04/08 14:13:27;;;;;;;;;;;19.40;43.50;;;;;;6147760;23;19929;-96
2023/04/08 14:15:57;;;;;;;;;;;19.40;42.90;;;;;;6149129;23;19905;-96
2023/04/08 14:18:24;;;;;;;;;;;19.40;44.00;;;;;;6147742;23;19909;-96
2023/04/08 14:20:51;;;;;;;;;;;19.40;43.40;;;;;;6147822;23;19905;-96
2023/04/08 14:23:17;;;;;;;;;;;19.40;43.90;;;;;;6148755;23;19997;-96